Samedan Airport

Airport
ICAO code: 
LSZS
IATA Code: 
SMV
Summary
ICAO Region: 
EUR
Territory: 
Location: 
Samedan, Graubunden
Serving: 
Sankt Moritz
Elevation: 
5600 ft
Coordinates: 
Aerial View: 
46° 32' 2.67" N, 9° 53' 2.782" E
Airport CFIT: 
Altimeter Temperature Error Correction
Airport GND: 
Aircraft Ground De/Anti Icing
Metar
Observation
LSZS 171620Z VRB03KT CAVOK M04/M11 Q1028 RMK T TL170
Station
SAMEDAN
Date/Time
2022-01-17 16:20:00
Wind speed
03 kts
Lowest cloud amount
clouds and visibility OK
Temperature
-4°C
Dew point
-11°C
Humidity
58%
QNH
1028 hPa
Weather condition
n/a

Description

Samedan Airport, also known as Engadin Airport, is a regional airport in Samedan in the Engadin valley of Switzerland, 5 km from St. Moritz.

Climatology

Alpine climate (Köppen climate classification ET) - warmest month has an average temperature of 0 - 10 degrees C.

In the Summer (warm) months, pilots should be aware of the possibility of Maloja Wind effects

Runways

Designator Length Width Surface Rops
3/21 1800 40 ASP Yes/Yes
Airport map: 
Aerial View: 

Accidents and Serious Incidents at or in the vicinity of LSZS

SKYbrary Partners:

Safety knowledge contributed by: